sensor_id;sensor_type;location;lat;lon;timestamp;P1;durP1;ratioP1;P2;durP2;ratioP2
68293;SDS011;55122;51.660;5.824;2022-08-01T00:03:55;10.0;;;4.8;;
68293;SDS011;55122;51.660;5.824;2022-08-01T00:08:55;10.1;;;5.5;;
68293;SDS011;55122;51.660;5.824;2022-08-01T00:13:55;7.8;;;4.4;;
68293;SDS011;55122;51.660;5.824;2022-08-01T00:18:55;8.1;;;4.6;;
68293;SDS011;55122;51.660;5.824;2022-08-01T00:23:55;9.1;;;4.7;;
68293;SDS011;55122;51.660;5.824;2022-08-01T00:28:55;8.6;;;4.6;;
68293;SDS011;55122;51.660;5.824;2022-08-01T00:33:55;6.6;;;4.4;;
68293;SDS011;55122;51.660;5.824;2022-08-01T00:38:55;7.1;;;4.4;;
68293;SDS011;55122;51.660;5.824;2022-08-01T00:43:56;8.3;;;4.6;;
68293;SDS011;55122;51.660;5.824;2022-08-01T00:48:56;8.7;;;4.3;;
68293;SDS011;55122;51.660;5.824;2022-08-01T00:53:55;6.3;;;4.0;;
68293;SDS011;55122;51.660;5.824;2022-08-01T00:58:56;5.8;;;3.9;;
68293;SDS011;55122;51.660;5.824;2022-08-01T01:09:11;6.2;;;4.0;;
68293;SDS011;55122;51.660;5.824;2022-08-01T01:14:02;8.1;;;3.7;;
68293;SDS011;55122;51.660;5.824;2022-08-01T01:18:57;7.1;;;3.5;;
68293;SDS011;55122;51.660;5.824;2022-08-01T01:24:31;5.7;;;3.3;;
68293;SDS011;55122;51.660;5.824;2022-08-01T01:29:27;7.0;;;3.5;;
68293;SDS011;55122;51.660;5.824;2022-08-01T01:33:56;5.2;;;2.9;;
68293;SDS011;55122;51.660;5.824;2022-08-01T01:38:56;4.2;;;3.1;;
68293;SDS011;55122;51.660;5.824;2022-08-01T01:43:56;5.4;;;3.1;;
68293;SDS011;55122;51.660;5.824;2022-08-01T01:48:56;4.7;;;2.9;;
68293;SDS011;55122;51.660;5.824;2022-08-01T01:53:56;5.6;;;3.2;;
68293;SDS011;55122;51.660;5.824;2022-08-01T01:59:01;5.8;;;3.5;;
68293;SDS011;55122;51.660;5.824;2022-08-01T02:03:56;4.6;;;2.9;;
68293;SDS011;55122;51.660;5.824;2022-08-01T02:08:56;5.7;;;3.3;;
68293;SDS011;55122;51.660;5.824;2022-08-01T02:13:57;8.4;;;3.1;;
68293;SDS011;55122;51.660;5.824;2022-08-01T02:18:56;4.7;;;2.9;;
68293;SDS011;55122;51.660;5.824;2022-08-01T02:23:59;4.8;;;2.9;;
68293;SDS011;55122;51.660;5.824;2022-08-01T02:29:05;4.5;;;3.1;;
68293;SDS011;55122;51.660;5.824;2022-08-01T02:34:02;4.4;;;3.0;;
68293;SDS011;55122;51.660;5.824;2022-08-01T02:38:56;5.1;;;3.2;;
68293;SDS011;55122;51.660;5.824;2022-08-01T02:43:59;3.7;;;2.8;;
68293;SDS011;55122;51.660;5.824;2022-08-01T02:53:56;4.6;;;3.5;;
68293;SDS011;55122;51.660;5.824;2022-08-01T02:58:56;4.3;;;3.2;;
68293;SDS011;55122;51.660;5.824;2022-08-01T03:03:56;6.7;;;3.5;;
68293;SDS011;55122;51.660;5.824;2022-08-01T03:08:56;5.4;;;3.3;;
68293;SDS011;55122;51.660;5.824;2022-08-01T03:13:56;4.8;;;3.7;;
68293;SDS011;55122;51.660;5.824;2022-08-01T03:18:56;4.3;;;3.3;;
68293;SDS011;55122;51.660;5.824;2022-08-01T03:23:56;3.8;;;3.0;;
68293;SDS011;55122;51.660;5.824;2022-08-01T03:28:57;4.6;;;3.1;;
68293;SDS011;55122;51.660;5.824;2022-08-01T03:33:56;3.5;;;2.7;;
68293;SDS011;55122;51.660;5.824;2022-08-01T03:38:57;4.7;;;3.0;;
68293;SDS011;55122;51.660;5.824;2022-08-01T03:43:57;3.9;;;3.0;;
68293;SDS011;55122;51.660;5.824;2022-08-01T03:48:57;4.8;;;3.1;;
68293;SDS011;55122;51.660;5.824;2022-08-01T03:53:56;3.6;;;2.9;;
68293;SDS011;55122;51.660;5.824;2022-08-01T03:58:56;3.8;;;3.0;;
68293;SDS011;55122;51.660;5.824;2022-08-01T04:03:57;4.4;;;2.8;;
68293;SDS011;55122;51.660;5.824;2022-08-01T04:08:56;6.1;;;3.4;;
68293;SDS011;55122;51.660;5.824;2022-08-01T04:13:56;4.1;;;3.0;;
68293;SDS011;55122;51.660;5.824;2022-08-01T04:18:56;4.3;;;3.0;;
68293;SDS011;55122;51.660;5.824;2022-08-01T04:23:59;3.4;;;2.8;;
68293;SDS011;55122;51.660;5.824;2022-08-01T04:28:56;4.3;;;3.2;;
68293;SDS011;55122;51.660;5.824;2022-08-01T04:33:56;4.0;;;3.2;;
68293;SDS011;55122;51.660;5.824;2022-08-01T04:38:58;3.7;;;3.2;;
68293;SDS011;55122;51.660;5.824;2022-08-01T04:43:56;4.6;;;3.4;;
68293;SDS011;55122;51.660;5.824;2022-08-01T04:48:56;5.4;;;3.7;;
68293;SDS011;55122;51.660;5.824;2022-08-01T04:53:56;4.7;;;3.3;;
68293;SDS011;55122;51.660;5.824;2022-08-01T04:58:56;4.6;;;3.3;;
68293;SDS011;55122;51.660;5.824;2022-08-01T05:03:56;3.7;;;2.9;;
68293;SDS011;55122;51.660;5.824;2022-08-01T05:08:56;4.5;;;3.1;;
68293;SDS011;55122;51.660;5.824;2022-08-01T05:13:56;3.8;;;3.3;;
68293;SDS011;55122;51.660;5.824;2022-08-01T05:18:56;5.0;;;2.9;;
68293;SDS011;55122;51.660;5.824;2022-08-01T05:23:56;3.6;;;2.9;;
68293;SDS011;55122;51.660;5.824;2022-08-01T05:28:56;4.7;;;3.0;;
68293;SDS011;55122;51.660;5.824;2022-08-01T05:33:56;3.4;;;2.7;;
68293;SDS011;55122;51.660;5.824;2022-08-01T05:38:56;4.4;;;2.9;;
68293;SDS011;55122;51.660;5.824;2022-08-01T05:43:56;4.3;;;3.0;;
68293;SDS011;55122;51.660;5.824;2022-08-01T05:48:56;4.3;;;3.2;;
68293;SDS011;55122;51.660;5.824;2022-08-01T05:53:56;4.3;;;3.0;;
68293;SDS011;55122;51.660;5.824;2022-08-01T05:58:56;3.7;;;3.0;;
68293;SDS011;55122;51.660;5.824;2022-08-01T06:03:56;2.9;;;2.6;;
68293;SDS011;55122;51.660;5.824;2022-08-01T06:08:56;3.6;;;2.8;;
68293;SDS011;55122;51.660;5.824;2022-08-01T06:13:56;4.3;;;2.9;;
68293;SDS011;55122;51.660;5.824;2022-08-01T06:18:56;4.8;;;3.6;;
68293;SDS011;55122;51.660;5.824;2022-08-01T06:23:56;3.5;;;3.1;;
68293;SDS011;55122;51.660;5.824;2022-08-01T06:28:56;3.9;;;2.8;;
68293;SDS011;55122;51.660;5.824;2022-08-01T06:33:56;3.6;;;3.1;;
68293;SDS011;55122;51.660;5.824;2022-08-01T06:38:56;3.6;;;3.0;;
68293;SDS011;55122;51.660;5.824;2022-08-01T06:43:56;4.0;;;3.4;;
68293;SDS011;55122;51.660;5.824;2022-08-01T06:48:56;3.8;;;3.2;;
68293;SDS011;55122;51.660;5.824;2022-08-01T06:53:56;4.8;;;3.3;;
68293;SDS011;55122;51.660;5.824;2022-08-01T06:58:56;3.3;;;2.8;;
68293;SDS011;55122;51.660;5.824;2022-08-01T07:03:56;3.8;;;3.1;;
68293;SDS011;55122;51.660;5.824;2022-08-01T07:08:56;3.7;;;3.1;;
68293;SDS011;55122;51.660;5.824;2022-08-01T07:13:56;3.0;;;2.7;;
68293;SDS011;55122;51.660;5.824;2022-08-01T07:18:56;3.2;;;2.9;;
68293;SDS011;55122;51.660;5.824;2022-08-01T07:23:56;3.3;;;2.9;;
68293;SDS011;55122;51.660;5.824;2022-08-01T07:28:56;5.0;;;2.8;;
68293;SDS011;55122;51.660;5.824;2022-08-01T07:33:56;2.6;;;2.4;;
68293;SDS011;55122;51.660;5.824;2022-08-01T07:38:56;3.1;;;2.5;;
68293;SDS011;55122;51.660;5.824;2022-08-01T07:43:56;3.6;;;2.5;;
68293;SDS011;55122;51.660;5.824;2022-08-01T07:48:56;2.9;;;2.3;;
68293;SDS011;55122;51.660;5.824;2022-08-01T07:53:56;3.2;;;2.3;;
68293;SDS011;55122;51.660;5.824;2022-08-01T07:58:56;3.0;;;2.3;;
68293;SDS011;55122;51.660;5.824;2022-08-01T08:03:56;3.0;;;2.5;;
68293;SDS011;55122;51.660;5.824;2022-08-01T08:08:56;3.2;;;2.3;;
68293;SDS011;55122;51.660;5.824;2022-08-01T08:13:56;2.8;;;2.5;;
68293;SDS011;55122;51.660;5.824;2022-08-01T08:18:56;2.2;;;2.0;;
68293;SDS011;55122;51.660;5.824;2022-08-01T08:23:56;3.4;;;2.3;;
68293;SDS011;55122;51.660;5.824;2022-08-01T08:28:56;2.4;;;2.1;;
68293;SDS011;55122;51.660;5.824;2022-08-01T08:33:56;3.2;;;2.3;;
68293;SDS011;55122;51.660;5.824;2022-08-01T08:38:56;2.7;;;2.2;;
68293;SDS011;55122;51.660;5.824;2022-08-01T08:43:56;2.7;;;2.0;;
68293;SDS011;55122;51.660;5.824;2022-08-01T08:48:56;4.6;;;2.0;;
68293;SDS011;55122;51.660;5.824;2022-08-01T08:53:58;2.5;;;1.8;;
68293;SDS011;55122;51.660;5.824;2022-08-01T08:58:56;2.8;;;1.7;;
68293;SDS011;55122;51.660;5.824;2022-08-01T09:03:56;2.5;;;1.7;;
68293;SDS011;55122;51.660;5.824;2022-08-01T09:08:57;2.6;;;1.9;;
68293;SDS011;55122;51.660;5.824;2022-08-01T09:14:11;2.7;;;1.7;;
68293;SDS011;55122;51.660;5.824;2022-08-01T09:19:06;2.2;;;1.7;;
68293;SDS011;55122;51.660;5.824;2022-08-01T09:23:56;2.3;;;1.8;;
68293;SDS011;55122;51.660;5.824;2022-08-01T09:28:56;2.1;;;1.5;;
68293;SDS011;55122;51.660;5.824;2022-08-01T09:34:00;2.1;;;1.6;;
68293;SDS011;55122;51.660;5.824;2022-08-01T09:39:12;2.1;;;1.6;;
68293;SDS011;55122;51.660;5.824;2022-08-01T09:43:56;2.4;;;1.6;;
68293;SDS011;55122;51.660;5.824;2022-08-01T09:48:59;1.9;;;1.5;;
68293;SDS011;55122;51.660;5.824;2022-08-01T09:53:57;1.8;;;1.3;;
68293;SDS011;55122;51.660;5.824;2022-08-01T09:58:59;2.3;;;1.6;;
68293;SDS011;55122;51.660;5.824;2022-08-01T10:04:08;3.8;;;1.5;;
68293;SDS011;55122;51.660;5.824;2022-08-01T10:08:56;1.9;;;1.5;;
68293;SDS011;55122;51.660;5.824;2022-08-01T10:13:59;1.7;;;1.3;;
68293;SDS011;55122;51.660;5.824;2022-08-01T10:18:56;2.6;;;1.3;;
68293;SDS011;55122;51.660;5.824;2022-08-01T10:23:57;1.7;;;1.3;;
68293;SDS011;55122;51.660;5.824;2022-08-01T10:28:57;1.5;;;1.3;;
68293;SDS011;55122;51.660;5.824;2022-08-01T10:33:57;1.3;;;1.2;;
68293;SDS011;55122;51.660;5.824;2022-08-01T10:38:57;1.8;;;1.3;;
68293;SDS011;55122;51.660;5.824;2022-08-01T10:43:57;1.3;;;1.2;;
68293;SDS011;55122;51.660;5.824;2022-08-01T10:49:03;1.0;;;0.9;;
68293;SDS011;55122;51.660;5.824;2022-08-01T10:53:57;2.2;;;1.2;;
68293;SDS011;55122;51.660;5.824;2022-08-01T10:59:00;2.4;;;1.2;;
68293;SDS011;55122;51.660;5.824;2022-08-01T11:04:06;1.6;;;1.2;;
68293;SDS011;55122;51.660;5.824;2022-08-01T11:08:57;1.4;;;1.1;;
68293;SDS011;55122;51.660;5.824;2022-08-01T11:14:06;1.3;;;1.0;;
68293;SDS011;55122;51.660;5.824;2022-08-01T11:23:57;1.5;;;1.0;;
68293;SDS011;55122;51.660;5.824;2022-08-01T11:29:11;1.2;;;1.1;;
68293;SDS011;55122;51.660;5.824;2022-08-01T11:33:57;1.5;;;1.1;;
68293;SDS011;55122;51.660;5.824;2022-08-01T11:39:13;1.3;;;0.8;;
68293;SDS011;55122;51.660;5.824;2022-08-01T11:43:58;1.3;;;0.9;;
68293;SDS011;55122;51.660;5.824;2022-08-01T11:53:57;1.7;;;1.0;;
68293;SDS011;55122;51.660;5.824;2022-08-01T11:58:58;2.0;;;1.0;;
68293;SDS011;55122;51.660;5.824;2022-08-01T12:03:57;0.9;;;0.7;;
68293;SDS011;55122;51.660;5.824;2022-08-01T12:08:57;3.1;;;0.9;;
68293;SDS011;55122;51.660;5.824;2022-08-01T12:13:57;1.4;;;0.9;;
68293;SDS011;55122;51.660;5.824;2022-08-01T12:18:57;3.2;;;1.0;;
68293;SDS011;55122;51.660;5.824;2022-08-01T12:24:01;1.8;;;0.9;;
68293;SDS011;55122;51.660;5.824;2022-08-01T12:28:57;2.1;;;0.9;;
68293;SDS011;55122;51.660;5.824;2022-08-01T12:33:57;1.5;;;0.8;;
68293;SDS011;55122;51.660;5.824;2022-08-01T12:38:57;2.3;;;0.8;;
68293;SDS011;55122;51.660;5.824;2022-08-01T12:43:57;1.9;;;0.9;;
68293;SDS011;55122;51.660;5.824;2022-08-01T12:48:57;1.7;;;0.8;;
68293;SDS011;55122;51.660;5.824;2022-08-01T12:53:58;2.3;;;1.0;;
68293;SDS011;55122;51.660;5.824;2022-08-01T12:58:57;1.8;;;0.8;;
68293;SDS011;55122;51.660;5.824;2022-08-01T13:03:57;2.0;;;0.9;;
68293;SDS011;55122;51.660;5.824;2022-08-01T13:09:04;1.9;;;1.0;;
68293;SDS011;55122;51.660;5.824;2022-08-01T13:13:57;2.8;;;1.1;;
68293;SDS011;55122;51.660;5.824;2022-08-01T13:18:57;1.3;;;0.8;;
68293;SDS011;55122;51.660;5.824;2022-08-01T13:24:03;2.5;;;1.0;;
68293;SDS011;55122;51.660;5.824;2022-08-01T13:29:05;2.9;;;1.0;;
68293;SDS011;55122;51.660;5.824;2022-08-01T13:33:57;3.5;;;0.9;;
68293;SDS011;55122;51.660;5.824;2022-08-01T13:38:57;3.3;;;1.1;;
68293;SDS011;55122;51.660;5.824;2022-08-01T13:43:57;2.1;;;1.0;;
68293;SDS011;55122;51.660;5.824;2022-08-01T13:48:57;2.3;;;0.9;;
68293;SDS011;55122;51.660;5.824;2022-08-01T13:53:57;2.6;;;1.0;;
68293;SDS011;55122;51.660;5.824;2022-08-01T13:58:57;2.5;;;0.9;;
68293;SDS011;55122;51.660;5.824;2022-08-01T14:03:57;2.4;;;1.0;;
68293;SDS011;55122;51.660;5.824;2022-08-01T14:08:57;3.9;;;1.3;;
68293;SDS011;55122;51.660;5.824;2022-08-01T14:13:57;3.1;;;1.3;;
68293;SDS011;55122;51.660;5.824;2022-08-01T14:18:57;3.7;;;1.4;;
68293;SDS011;55122;51.660;5.824;2022-08-01T14:23:57;3.9;;;1.1;;
68293;SDS011;55122;51.660;5.824;2022-08-01T14:28:57;3.2;;;1.3;;
68293;SDS011;55122;51.660;5.824;2022-08-01T14:33:57;3.8;;;1.2;;
68293;SDS011;55122;51.660;5.824;2022-08-01T14:38:57;3.7;;;1.5;;
68293;SDS011;55122;51.660;5.824;2022-08-01T14:43:57;4.4;;;1.2;;
68293;SDS011;55122;51.660;5.824;2022-08-01T14:48:57;3.5;;;1.3;;
68293;SDS011;55122;51.660;5.824;2022-08-01T14:53:57;3.5;;;1.2;;
68293;SDS011;55122;51.660;5.824;2022-08-01T14:58:57;3.7;;;1.4;;
68293;SDS011;55122;51.660;5.824;2022-08-01T15:03:57;3.5;;;1.4;;
68293;SDS011;55122;51.660;5.824;2022-08-01T15:08:57;3.4;;;1.3;;
68293;SDS011;55122;51.660;5.824;2022-08-01T15:13:57;6.1;;;1.8;;
68293;SDS011;55122;51.660;5.824;2022-08-01T15:18:57;4.9;;;1.6;;
68293;SDS011;55122;51.660;5.824;2022-08-01T15:23:57;5.8;;;1.9;;
68293;SDS011;55122;51.660;5.824;2022-08-01T15:28:57;4.7;;;1.8;;
68293;SDS011;55122;51.660;5.824;2022-08-01T15:33:57;4.5;;;1.6;;
68293;SDS011;55122;51.660;5.824;2022-08-01T15:38:57;5.2;;;1.6;;
68293;SDS011;55122;51.660;5.824;2022-08-01T15:43:57;4.4;;;1.6;;
68293;SDS011;55122;51.660;5.824;2022-08-01T15:48:57;5.1;;;2.0;;
68293;SDS011;55122;51.660;5.824;2022-08-01T15:53:57;6.4;;;1.8;;
68293;SDS011;55122;51.660;5.824;2022-08-01T15:58:58;7.3;;;1.7;;
68293;SDS011;55122;51.660;5.824;2022-08-01T16:03:57;4.6;;;1.5;;
68293;SDS011;55122;51.660;5.824;2022-08-01T16:08:57;4.7;;;1.4;;
68293;SDS011;55122;51.660;5.824;2022-08-01T16:13:57;5.3;;;1.6;;
68293;SDS011;55122;51.660;5.824;2022-08-01T16:18:57;5.5;;;1.5;;
68293;SDS011;55122;51.660;5.824;2022-08-01T16:23:57;4.1;;;1.3;;
68293;SDS011;55122;51.660;5.824;2022-08-01T16:28:57;4.0;;;1.5;;
68293;SDS011;55122;51.660;5.824;2022-08-01T16:33:57;5.3;;;1.3;;
68293;SDS011;55122;51.660;5.824;2022-08-01T16:38:57;5.1;;;1.4;;
68293;SDS011;55122;51.660;5.824;2022-08-01T16:43:57;3.7;;;1.3;;
68293;SDS011;55122;51.660;5.824;2022-08-01T16:48:57;3.3;;;1.2;;
68293;SDS011;55122;51.660;5.824;2022-08-01T16:53:57;3.1;;;1.1;;
68293;SDS011;55122;51.660;5.824;2022-08-01T16:58:57;4.2;;;1.4;;
68293;SDS011;55122;51.660;5.824;2022-08-01T17:03:57;4.6;;;1.5;;
68293;SDS011;55122;51.660;5.824;2022-08-01T17:08:57;3.3;;;1.2;;
68293;SDS011;55122;51.660;5.824;2022-08-01T17:13:57;3.0;;;1.3;;
68293;SDS011;55122;51.660;5.824;2022-08-01T17:18:57;3.1;;;1.1;;
68293;SDS011;55122;51.660;5.824;2022-08-01T17:23:57;2.9;;;1.1;;
68293;SDS011;55122;51.660;5.824;2022-08-01T17:28:57;3.2;;;1.2;;
68293;SDS011;55122;51.660;5.824;2022-08-01T17:33:57;2.9;;;1.1;;
68293;SDS011;55122;51.660;5.824;2022-08-01T17:38:57;2.6;;;1.2;;
68293;SDS011;55122;51.660;5.824;2022-08-01T17:43:57;2.9;;;1.2;;
68293;SDS011;55122;51.660;5.824;2022-08-01T17:48:57;2.8;;;1.1;;
68293;SDS011;55122;51.660;5.824;2022-08-01T17:53:57;2.6;;;1.2;;
68293;SDS011;55122;51.660;5.824;2022-08-01T17:58:57;2.5;;;1.2;;
68293;SDS011;55122;51.660;5.824;2022-08-01T18:03:58;2.7;;;1.2;;
68293;SDS011;55122;51.660;5.824;2022-08-01T18:08:57;3.1;;;1.1;;
68293;SDS011;55122;51.660;5.824;2022-08-01T18:13:58;2.9;;;1.2;;
68293;SDS011;55122;51.660;5.824;2022-08-01T18:18:57;3.2;;;1.1;;
68293;SDS011;55122;51.660;5.824;2022-08-01T18:23:57;4.4;;;1.1;;
68293;SDS011;55122;51.660;5.824;2022-08-01T18:28:57;2.5;;;1.0;;
68293;SDS011;55122;51.660;5.824;2022-08-01T18:33:58;2.4;;;0.9;;
68293;SDS011;55122;51.660;5.824;2022-08-01T18:38:58;2.2;;;0.9;;
68293;SDS011;55122;51.660;5.824;2022-08-01T18:43:57;3.0;;;1.2;;
68293;SDS011;55122;51.660;5.824;2022-08-01T18:48:58;2.4;;;0.9;;
68293;SDS011;55122;51.660;5.824;2022-08-01T18:53:58;3.6;;;1.1;;
68293;SDS011;55122;51.660;5.824;2022-08-01T18:58:58;2.5;;;1.2;;
68293;SDS011;55122;51.660;5.824;2022-08-01T19:03:58;2.6;;;1.1;;
68293;SDS011;55122;51.660;5.824;2022-08-01T19:08:58;2.6;;;1.1;;
68293;SDS011;55122;51.660;5.824;2022-08-01T19:18:58;2.9;;;1.0;;
68293;SDS011;55122;51.660;5.824;2022-08-01T19:23:58;2.3;;;1.1;;
68293;SDS011;55122;51.660;5.824;2022-08-01T19:29:00;2.6;;;1.1;;
68293;SDS011;55122;51.660;5.824;2022-08-01T19:33:58;2.2;;;1.1;;
68293;SDS011;55122;51.660;5.824;2022-08-01T19:38:58;2.3;;;1.1;;
68293;SDS011;55122;51.660;5.824;2022-08-01T19:43:58;2.5;;;0.9;;
68293;SDS011;55122;51.660;5.824;2022-08-01T19:48:58;1.5;;;1.0;;
68293;SDS011;55122;51.660;5.824;2022-08-01T19:54:03;1.3;;;0.9;;
68293;SDS011;55122;51.660;5.824;2022-08-01T19:58:58;2.1;;;1.1;;
68293;SDS011;55122;51.660;5.824;2022-08-01T20:03:58;1.7;;;0.8;;
68293;SDS011;55122;51.660;5.824;2022-08-01T20:08:58;2.1;;;0.9;;
